sensor_id;sensor_type;location;lat;lon;timestamp;P1;durP1;ratioP1;P2;durP2;ratioP2
80195;SDS011;69516;42.050;21.516;2023-05-21T00:00:29;16.98;;;10.25;;
80195;SDS011;69516;42.050;21.516;2023-05-21T00:02:55;15.70;;;11.13;;
80195;SDS011;69516;42.050;21.516;2023-05-21T00:05:23;15.88;;;11.35;;
80195;SDS011;69516;42.050;21.516;2023-05-21T00:07:49;16.95;;;11.63;;
80195;SDS011;69516;42.050;21.516;2023-05-21T00:10:17;21.65;;;13.23;;
80195;SDS011;69516;42.050;21.516;2023-05-21T00:12:43;23.55;;;13.50;;
80195;SDS011;69516;42.050;21.516;2023-05-21T00:15:10;20.27;;;13.90;;
80195;SDS011;69516;42.050;21.516;2023-05-21T00:17:36;18.40;;;12.40;;
80195;SDS011;69516;42.050;21.516;2023-05-21T00:20:04;19.58;;;13.45;;
80195;SDS011;69516;42.050;21.516;2023-05-21T00:22:31;22.55;;;14.95;;
80195;SDS011;69516;42.050;21.516;2023-05-21T00:24:58;26.67;;;15.18;;
80195;SDS011;69516;42.050;21.516;2023-05-21T00:27:24;24.35;;;15.60;;
80195;SDS011;69516;42.050;21.516;2023-05-21T00:29:50;23.95;;;15.93;;
80195;SDS011;69516;42.050;21.516;2023-05-21T00:32:17;28.17;;;16.90;;
80195;SDS011;69516;42.050;21.516;2023-05-21T00:34:43;26.67;;;16.23;;
80195;SDS011;69516;42.050;21.516;2023-05-21T00:37:10;22.17;;;15.98;;
80195;SDS011;69516;42.050;21.516;2023-05-21T00:39:36;23.27;;;15.45;;
80195;SDS011;69516;42.050;21.516;2023-05-21T00:42:02;21.23;;;14.05;;
80195;SDS011;69516;42.050;21.516;2023-05-21T00:44:28;21.67;;;14.43;;
80195;SDS011;69516;42.050;21.516;2023-05-21T00:46:59;23.15;;;14.90;;
80195;SDS011;69516;42.050;21.516;2023-05-21T00:49:26;19.98;;;14.25;;
80195;SDS011;69516;42.050;21.516;2023-05-21T00:51:52;20.30;;;14.57;;
80195;SDS011;69516;42.050;21.516;2023-05-21T00:54:19;19.45;;;13.77;;
80195;SDS011;69516;42.050;21.516;2023-05-21T00:56:45;22.05;;;14.80;;
80195;SDS011;69516;42.050;21.516;2023-05-21T00:59:12;22.05;;;14.20;;
80195;SDS011;69516;42.050;21.516;2023-05-21T01:01:40;23.30;;;15.27;;
80195;SDS011;69516;42.050;21.516;2023-05-21T01:04:09;21.40;;;14.32;;
80195;SDS011;69516;42.050;21.516;2023-05-21T01:06:36;19.75;;;15.05;;
80195;SDS011;69516;42.050;21.516;2023-05-21T01:09:02;21.02;;;14.15;;
80195;SDS011;69516;42.050;21.516;2023-05-21T01:11:35;22.35;;;15.40;;
80195;SDS011;69516;42.050;21.516;2023-05-21T01:14:03;22.15;;;14.85;;
80195;SDS011;69516;42.050;21.516;2023-05-21T01:16:32;23.48;;;13.90;;
80195;SDS011;69516;42.050;21.516;2023-05-21T01:19:00;19.92;;;14.80;;
80195;SDS011;69516;42.050;21.516;2023-05-21T01:21:27;20.55;;;13.23;;
80195;SDS011;69516;42.050;21.516;2023-05-21T01:23:54;20.63;;;12.93;;
80195;SDS011;69516;42.050;21.516;2023-05-21T01:26:21;20.88;;;12.75;;
80195;SDS011;69516;42.050;21.516;2023-05-21T01:28:49;19.63;;;12.07;;
80195;SDS011;69516;42.050;21.516;2023-05-21T01:31:25;15.55;;;10.52;;
80195;SDS011;69516;42.050;21.516;2023-05-21T01:33:52;15.40;;;10.75;;
80195;SDS011;69516;42.050;21.516;2023-05-21T01:39:00;16.83;;;10.43;;
80195;SDS011;69516;42.050;21.516;2023-05-21T01:41:28;16.33;;;10.55;;
80195;SDS011;69516;42.050;21.516;2023-05-21T01:43:58;18.52;;;11.70;;
80195;SDS011;69516;42.050;21.516;2023-05-21T01:46:25;19.48;;;10.82;;
80195;SDS011;69516;42.050;21.516;2023-05-21T01:48:52;19.55;;;11.07;;
80195;SDS011;69516;42.050;21.516;2023-05-21T01:51:20;17.90;;;12.02;;
80195;SDS011;69516;42.050;21.516;2023-05-21T01:53:46;21.17;;;12.70;;
80195;SDS011;69516;42.050;21.516;2023-05-21T01:56:12;21.15;;;13.27;;
80195;SDS011;69516;42.050;21.516;2023-05-21T01:58:40;20.02;;;12.00;;
80195;SDS011;69516;42.050;21.516;2023-05-21T02:01:06;18.80;;;12.63;;
80195;SDS011;69516;42.050;21.516;2023-05-21T02:03:32;21.05;;;13.70;;
80195;SDS011;69516;42.050;21.516;2023-05-21T02:05:58;22.48;;;12.75;;
80195;SDS011;69516;42.050;21.516;2023-05-21T02:08:25;22.42;;;12.63;;
80195;SDS011;69516;42.050;21.516;2023-05-21T02:10:51;21.17;;;12.57;;
80195;SDS011;69516;42.050;21.516;2023-05-21T02:13:18;21.95;;;13.68;;
80195;SDS011;69516;42.050;21.516;2023-05-21T02:15:48;22.25;;;14.75;;
80195;SDS011;69516;42.050;21.516;2023-05-21T02:18:19;21.35;;;12.98;;
80195;SDS011;69516;42.050;21.516;2023-05-21T02:20:46;21.23;;;13.55;;
80195;SDS011;69516;42.050;21.516;2023-05-21T02:23:12;18.75;;;11.43;;
80195;SDS011;69516;42.050;21.516;2023-05-21T02:25:38;20.02;;;10.52;;
80195;SDS011;69516;42.050;21.516;2023-05-21T02:28:04;19.35;;;10.95;;
80195;SDS011;69516;42.050;21.516;2023-05-21T02:30:31;19.67;;;11.45;;
80195;SDS011;69516;42.050;21.516;2023-05-21T02:32:57;21.13;;;11.15;;
80195;SDS011;69516;42.050;21.516;2023-05-21T02:35:24;20.85;;;10.80;;
80195;SDS011;69516;42.050;21.516;2023-05-21T02:37:51;17.25;;;10.70;;
80195;SDS011;69516;42.050;21.516;2023-05-21T02:40:17;18.63;;;10.93;;
80195;SDS011;69516;42.050;21.516;2023-05-21T02:42:43;19.63;;;11.27;;
80195;SDS011;69516;42.050;21.516;2023-05-21T02:45:10;19.30;;;11.48;;
80195;SDS011;69516;42.050;21.516;2023-05-21T02:47:36;22.10;;;13.15;;
80195;SDS011;69516;42.050;21.516;2023-05-21T02:50:04;23.73;;;14.93;;
80195;SDS011;69516;42.050;21.516;2023-05-21T02:52:30;29.77;;;18.73;;
80195;SDS011;69516;42.050;21.516;2023-05-21T02:54:56;30.38;;;17.90;;
80195;SDS011;69516;42.050;21.516;2023-05-21T02:57:22;34.50;;;20.52;;
80195;SDS011;69516;42.050;21.516;2023-05-21T02:59:49;31.45;;;20.40;;
80195;SDS011;69516;42.050;21.516;2023-05-21T03:02:15;34.53;;;20.40;;
80195;SDS011;69516;42.050;21.516;2023-05-21T03:04:42;35.55;;;20.40;;
80195;SDS011;69516;42.050;21.516;2023-05-21T03:07:15;35.00;;;20.38;;
80195;SDS011;69516;42.050;21.516;2023-05-21T03:09:44;34.45;;;22.27;;
80195;SDS011;69516;42.050;21.516;2023-05-21T03:12:10;32.28;;;20.65;;
80195;SDS011;69516;42.050;21.516;2023-05-21T03:14:37;32.88;;;20.95;;
80195;SDS011;69516;42.050;21.516;2023-05-21T03:17:03;34.30;;;21.38;;
80195;SDS011;69516;42.050;21.516;2023-05-21T03:19:33;33.40;;;20.63;;
80195;SDS011;69516;42.050;21.516;2023-05-21T03:22:00;31.90;;;20.15;;
80195;SDS011;69516;42.050;21.516;2023-05-21T03:24:27;31.15;;;20.13;;
80195;SDS011;69516;42.050;21.516;2023-05-21T03:26:54;30.70;;;19.83;;
80195;SDS011;69516;42.050;21.516;2023-05-21T03:29:21;29.67;;;18.88;;
80195;SDS011;69516;42.050;21.516;2023-05-21T03:31:47;31.40;;;19.55;;
80195;SDS011;69516;42.050;21.516;2023-05-21T03:34:13;29.27;;;18.25;;
80195;SDS011;69516;42.050;21.516;2023-05-21T03:36:40;28.33;;;19.33;;
80195;SDS011;69516;42.050;21.516;2023-05-21T03:39:06;34.63;;;20.33;;
80195;SDS011;69516;42.050;21.516;2023-05-21T03:41:32;31.35;;;19.77;;
80195;SDS011;69516;42.050;21.516;2023-05-21T03:44:02;32.90;;;19.38;;
80195;SDS011;69516;42.050;21.516;2023-05-21T03:46:28;30.10;;;18.27;;
80195;SDS011;69516;42.050;21.516;2023-05-21T03:48:54;28.55;;;17.42;;
80195;SDS011;69516;42.050;21.516;2023-05-21T03:51:22;24.55;;;17.70;;
80195;SDS011;69516;42.050;21.516;2023-05-21T03:53:49;27.50;;;17.95;;
80195;SDS011;69516;42.050;21.516;2023-05-21T03:56:15;30.02;;;16.90;;
80195;SDS011;69516;42.050;21.516;2023-05-21T03:58:42;35.28;;;18.40;;
80195;SDS011;69516;42.050;21.516;2023-05-21T04:01:08;29.20;;;17.48;;
80195;SDS011;69516;42.050;21.516;2023-05-21T04:03:34;25.05;;;16.35;;
80195;SDS011;69516;42.050;21.516;2023-05-21T04:06:01;27.65;;;16.38;;
80195;SDS011;69516;42.050;21.516;2023-05-21T04:08:28;24.02;;;15.85;;
80195;SDS011;69516;42.050;21.516;2023-05-21T04:10:54;30.38;;;17.58;;
80195;SDS011;69516;42.050;21.516;2023-05-21T04:13:20;25.77;;;16.30;;
80195;SDS011;69516;42.050;21.516;2023-05-21T04:15:47;26.80;;;17.38;;
80195;SDS011;69516;42.050;21.516;2023-05-21T04:18:13;25.40;;;15.50;;
80195;SDS011;69516;42.050;21.516;2023-05-21T04:20:41;26.05;;;16.58;;
80195;SDS011;69516;42.050;21.516;2023-05-21T04:23:07;25.65;;;16.35;;
80195;SDS011;69516;42.050;21.516;2023-05-21T04:25:34;21.35;;;13.63;;
80195;SDS011;69516;42.050;21.516;2023-05-21T04:28:00;18.77;;;13.23;;
80195;SDS011;69516;42.050;21.516;2023-05-21T04:30:27;23.65;;;13.05;;
80195;SDS011;69516;42.050;21.516;2023-05-21T04:32:53;20.27;;;11.63;;
80195;SDS011;69516;42.050;21.516;2023-05-21T04:35:19;20.58;;;13.55;;
80195;SDS011;69516;42.050;21.516;2023-05-21T04:37:45;23.38;;;14.05;;
80195;SDS011;69516;42.050;21.516;2023-05-21T04:40:12;21.35;;;14.25;;
80195;SDS011;69516;42.050;21.516;2023-05-21T04:42:43;19.15;;;13.07;;
80195;SDS011;69516;42.050;21.516;2023-05-21T04:45:10;20.02;;;13.27;;
80195;SDS011;69516;42.050;21.516;2023-05-21T04:47:37;21.92;;;13.80;;
80195;SDS011;69516;42.050;21.516;2023-05-21T04:50:03;21.90;;;13.95;;
80195;SDS011;69516;42.050;21.516;2023-05-21T04:52:29;24.25;;;14.55;;
80195;SDS011;69516;42.050;21.516;2023-05-21T04:54:55;20.08;;;14.30;;
80195;SDS011;69516;42.050;21.516;2023-05-21T04:57:22;23.42;;;16.08;;
80195;SDS011;69516;42.050;21.516;2023-05-21T04:59:49;23.98;;;14.93;;
80195;SDS011;69516;42.050;21.516;2023-05-21T05:02:16;22.00;;;14.38;;
80195;SDS011;69516;42.050;21.516;2023-05-21T05:04:42;22.02;;;16.17;;
80195;SDS011;69516;42.050;21.516;2023-05-21T05:07:09;21.65;;;14.18;;
80195;SDS011;69516;42.050;21.516;2023-05-21T05:09:35;19.48;;;14.38;;
80195;SDS011;69516;42.050;21.516;2023-05-21T05:12:01;20.15;;;13.35;;
80195;SDS011;69516;42.050;21.516;2023-05-21T05:14:27;20.48;;;14.43;;
80195;SDS011;69516;42.050;21.516;2023-05-21T05:16:53;19.50;;;12.68;;
80195;SDS011;69516;42.050;21.516;2023-05-21T05:19:23;18.90;;;13.25;;
80195;SDS011;69516;42.050;21.516;2023-05-21T05:21:49;19.90;;;13.32;;
80195;SDS011;69516;42.050;21.516;2023-05-21T05:24:16;18.23;;;12.70;;
80195;SDS011;69516;42.050;21.516;2023-05-21T05:26:42;19.95;;;13.07;;
80195;SDS011;69516;42.050;21.516;2023-05-21T05:29:08;21.63;;;14.48;;
80195;SDS011;69516;42.050;21.516;2023-05-21T05:31:34;21.48;;;13.75;;
80195;SDS011;69516;42.050;21.516;2023-05-21T05:34:00;23.35;;;14.32;;
80195;SDS011;69516;42.050;21.516;2023-05-21T05:36:27;20.63;;;13.70;;
80195;SDS011;69516;42.050;21.516;2023-05-21T05:38:53;25.52;;;15.20;;
80195;SDS011;69516;42.050;21.516;2023-05-21T05:41:19;23.92;;;15.25;;
80195;SDS011;69516;42.050;21.516;2023-05-21T05:43:45;26.17;;;15.20;;
80195;SDS011;69516;42.050;21.516;2023-05-21T05:46:11;22.85;;;15.98;;
80195;SDS011;69516;42.050;21.516;2023-05-21T05:48:37;23.75;;;16.75;;
80195;SDS011;69516;42.050;21.516;2023-05-21T05:51:03;22.55;;;15.80;;
80195;SDS011;69516;42.050;21.516;2023-05-21T05:53:30;23.52;;;14.77;;
80195;SDS011;69516;42.050;21.516;2023-05-21T05:55:56;20.88;;;14.77;;
80195;SDS011;69516;42.050;21.516;2023-05-21T05:58:23;19.63;;;13.45;;
80195;SDS011;69516;42.050;21.516;2023-05-21T06:00:50;21.85;;;14.93;;
80195;SDS011;69516;42.050;21.516;2023-05-21T06:03:16;20.25;;;13.98;;
80195;SDS011;69516;42.050;21.516;2023-05-21T06:05:42;25.95;;;15.73;;
80195;SDS011;69516;42.050;21.516;2023-05-21T06:08:09;21.25;;;14.38;;
80195;SDS011;69516;42.050;21.516;2023-05-21T06:10:35;21.67;;;14.48;;
80195;SDS011;69516;42.050;21.516;2023-05-21T06:13:01;22.13;;;15.27;;
80195;SDS011;69516;42.050;21.516;2023-05-21T06:15:27;22.42;;;14.85;;
80195;SDS011;69516;42.050;21.516;2023-05-21T06:17:53;19.17;;;13.45;;
80195;SDS011;69516;42.050;21.516;2023-05-21T06:20:20;19.85;;;13.50;;
80195;SDS011;69516;42.050;21.516;2023-05-21T06:22:46;18.42;;;13.40;;
80195;SDS011;69516;42.050;21.516;2023-05-21T06:25:12;20.70;;;14.25;;
80195;SDS011;69516;42.050;21.516;2023-05-21T06:27:38;20.50;;;12.85;;
80195;SDS011;69516;42.050;21.516;2023-05-21T06:30:05;22.88;;;13.63;;
80195;SDS011;69516;42.050;21.516;2023-05-21T06:32:31;18.50;;;13.68;;
80195;SDS011;69516;42.050;21.516;2023-05-21T06:34:57;18.83;;;13.23;;
80195;SDS011;69516;42.050;21.516;2023-05-21T06:37:23;22.25;;;13.32;;
80195;SDS011;69516;42.050;21.516;2023-05-21T06:39:49;17.98;;;13.27;;
80195;SDS011;69516;42.050;21.516;2023-05-21T06:42:16;18.38;;;13.70;;
80195;SDS011;69516;42.050;21.516;2023-05-21T06:44:42;19.10;;;13.55;;
80195;SDS011;69516;42.050;21.516;2023-05-21T06:47:08;21.92;;;13.93;;
80195;SDS011;69516;42.050;21.516;2023-05-21T06:49:34;18.30;;;12.88;;
80195;SDS011;69516;42.050;21.516;2023-05-21T06:52:00;18.38;;;13.18;;
80195;SDS011;69516;42.050;21.516;2023-05-21T06:54:27;17.92;;;12.40;;
80195;SDS011;69516;42.050;21.516;2023-05-21T06:56:53;20.83;;;13.05;;
80195;SDS011;69516;42.050;21.516;2023-05-21T06:59:19;19.52;;;14.73;;
80195;SDS011;69516;42.050;21.516;2023-05-21T07:01:45;18.80;;;13.23;;
80195;SDS011;69516;42.050;21.516;2023-05-21T07:04:11;21.70;;;14.18;;
80195;SDS011;69516;42.050;21.516;2023-05-21T07:06:38;18.60;;;12.93;;
80195;SDS011;69516;42.050;21.516;2023-05-21T07:09:04;19.00;;;13.98;;
80195;SDS011;69516;42.050;21.516;2023-05-21T07:11:31;17.98;;;13.02;;
80195;SDS011;69516;42.050;21.516;2023-05-21T07:13:57;18.33;;;12.32;;
80195;SDS011;69516;42.050;21.516;2023-05-21T07:16:28;18.58;;;11.57;;
80195;SDS011;69516;42.050;21.516;2023-05-21T07:18:54;16.50;;;9.93;;
80195;SDS011;69516;42.050;21.516;2023-05-21T07:21:20;12.50;;;8.38;;
80195;SDS011;69516;42.050;21.516;2023-05-21T07:23:46;15.98;;;9.35;;
80195;SDS011;69516;42.050;21.516;2023-05-21T07:26:12;10.80;;;7.47;;
80195;SDS011;69516;42.050;21.516;2023-05-21T07:28:39;15.48;;;8.13;;
80195;SDS011;69516;42.050;21.516;2023-05-21T07:31:05;13.32;;;8.07;;
80195;SDS011;69516;42.050;21.516;2023-05-21T07:33:32;14.07;;;8.38;;
80195;SDS011;69516;42.050;21.516;2023-05-21T07:35:58;13.73;;;7.78;;
80195;SDS011;69516;42.050;21.516;2023-05-21T07:38:25;12.23;;;7.53;;
80195;SDS011;69516;42.050;21.516;2023-05-21T07:40:51;12.07;;;7.45;;
80195;SDS011;69516;42.050;21.516;2023-05-21T07:43:17;12.73;;;7.07;;
80195;SDS011;69516;42.050;21.516;2023-05-21T07:45:43;14.80;;;8.95;;
80195;SDS011;69516;42.050;21.516;2023-05-21T07:48:09;13.35;;;8.88;;
80195;SDS011;69516;42.050;21.516;2023-05-21T07:50:36;15.57;;;8.88;;
80195;SDS011;69516;42.050;21.516;2023-05-21T07:53:02;13.63;;;8.90;;
80195;SDS011;69516;42.050;21.516;2023-05-21T07:55:28;14.48;;;8.20;;
80195;SDS011;69516;42.050;21.516;2023-05-21T07:57:54;15.57;;;8.23;;
80195;SDS011;69516;42.050;21.516;2023-05-21T08:00:21;17.73;;;8.27;;
80195;SDS011;69516;42.050;21.516;2023-05-21T08:02:48;11.30;;;7.43;;
80195;SDS011;69516;42.050;21.516;2023-05-21T08:05:14;13.45;;;7.93;;
80195;SDS011;69516;42.050;21.516;2023-05-21T08:07:40;12.05;;;8.38;;
80195;SDS011;69516;42.050;21.516;2023-05-21T08:10:06;16.10;;;8.63;;
80195;SDS011;69516;42.050;21.516;2023-05-21T08:12:33;13.02;;;8.55;;
80195;SDS011;69516;42.050;21.516;2023-05-21T08:14:59;17.73;;;9.52;;
80195;SDS011;69516;42.050;21.516;2023-05-21T08:17:25;13.85;;;8.77;;
80195;SDS011;69516;42.050;21.516;2023-05-21T08:19:52;16.33;;;9.35;;
80195;SDS011;69516;42.050;21.516;2023-05-21T08:22:19;19.42;;;10.27;;
80195;SDS011;69516;42.050;21.516;2023-05-21T08:24:45;16.15;;;10.77;;
80195;SDS011;69516;42.050;21.516;2023-05-21T08:27:12;22.38;;;12.07;;
80195;SDS011;69516;42.050;21.516;2023-05-21T08:29:40;22.20;;;12.95;;
80195;SDS011;69516;42.050;21.516;2023-05-21T08:32:06;20.65;;;12.30;;
80195;SDS011;69516;42.050;21.516;2023-05-21T08:34:33;19.95;;;13.02;;
80195;SDS011;69516;42.050;21.516;2023-05-21T08:37:00;19.95;;;12.30;;
80195;SDS011;69516;42.050;21.516;2023-05-21T08:39:26;20.98;;;13.52;;
80195;SDS011;69516;42.050;21.516;2023-05-21T08:41:54;20.00;;;12.45;;
80195;SDS011;69516;42.050;21.516;2023-05-21T08:46:48;19.63;;;11.77;;
80195;SDS011;69516;42.050;21.516;2023-05-21T08:49:16;19.45;;;11.25;;
80195;SDS011;69516;42.050;21.516;2023-05-21T08:51:43;17.92;;;11.05;;
80195;SDS011;69516;42.050;21.516;2023-05-21T08:54:10;17.60;;;11.18;;
80195;SDS011;69516;42.050;21.516;2023-05-21T08:56:38;18.08;;;10.20;;
80195;SDS011;69516;42.050;21.516;2023-05-21T08:59:09;16.13;;;11.15;;
80195;SDS011;69516;42.050;21.516;2023-05-21T09:01:36;14.70;;;10.18;;
80195;SDS011;69516;42.050;21.516;2023-05-21T09:04:06;16.00;;;9.50;;
80195;SDS011;69516;42.050;21.516;2023-05-21T09:06:33;14.40;;;9.80;;
80195;SDS011;69516;42.050;21.516;2023-05-21T09:09:01;15.93;;;9.07;;
80195;SDS011;69516;42.050;21.516;2023-05-21T09:11:29;15.35;;;8.77;;
80195;SDS011;69516;42.050;21.516;2023-05-21T09:13:56;17.65;;;8.95;;
80195;SDS011;69516;42.050;21.516;2023-05-21T09:16:22;16.63;;;8.80;;
80195;SDS011;69516;42.050;21.516;2023-05-21T09:18:49;11.60;;;7.57;;
80195;SDS011;69516;42.050;21.516;2023-05-21T09:21:22;13.15;;;7.82;;
80195;SDS011;69516;42.050;21.516;2023-05-21T09:23:58;14.80;;;8.48;;
80195;SDS011;69516;42.050;21.516;2023-05-21T09:26:25;13.70;;;8.68;;
80195;SDS011;69516;42.050;21.516;2023-05-21T09:28:55;13.07;;;8.30;;
80195;SDS011;69516;42.050;21.516;2023-05-21T09:31:22;12.13;;;8.02;;
80195;SDS011;69516;42.050;21.516;2023-05-21T09:33:48;12.75;;;7.30;;
80195;SDS011;69516;42.050;21.516;2023-05-21T09:36:16;12.63;;;6.93;;
80195;SDS011;69516;42.050;21.516;2023-05-21T09:38:44;11.85;;;7.13;;
80195;SDS011;69516;42.050;21.516;2023-05-21T09:41:10;14.93;;;6.32;;
80195;SDS011;69516;42.050;21.516;2023-05-21T09:43:36;10.57;;;6.43;;
80195;SDS011;69516;42.050;21.516;2023-05-21T09:46:03;11.13;;;6.70;;
80195;SDS011;69516;42.050;21.516;2023-05-21T09:48:33;10.80;;;6.00;;
80195;SDS011;69516;42.050;21.516;2023-05-21T09:51:12;9.93;;;5.88;;
80195;SDS011;69516;42.050;21.516;2023-05-21T09:56:16;11.68;;;5.65;;
80195;SDS011;69516;42.050;21.516;2023-05-21T09:58:42;10.02;;;5.55;;
80195;SDS011;69516;42.050;21.516;2023-05-21T10:01:09;11.75;;;5.45;;
80195;SDS011;69516;42.050;21.516;2023-05-21T10:03:37;11.00;;;6.10;;
80195;SDS011;69516;42.050;21.516;2023-05-21T10:06:06;10.48;;;5.72;;
80195;SDS011;69516;42.050;21.516;2023-05-21T10:08:34;12.70;;;5.85;;
80195;SDS011;69516;42.050;21.516;2023-05-21T10:11:04;9.70;;;5.35;;
80195;SDS011;69516;42.050;21.516;2023-05-21T10:13:30;11.68;;;5.53;;
80195;SDS011;69516;42.050;21.516;2023-05-21T10:16:00;8.88;;;4.97;;
80195;SDS011;69516;42.050;21.516;2023-05-21T10:18:27;10.80;;;4.97;;
80195;SDS011;69516;42.050;21.516;2023-05-21T10:20:54;11.50;;;5.00;;
80195;SDS011;69516;42.050;21.516;2023-05-21T10:23:22;10.15;;;4.82;;
80195;SDS011;69516;42.050;21.516;2023-05-21T10:25:48;9.98;;;5.07;;
80195;SDS011;69516;42.050;21.516;2023-05-21T10:28:15;8.55;;;4.97;;
80195;SDS011;69516;42.050;21.516;2023-05-21T10:30:42;10.50;;;4.75;;
80195;SDS011;69516;42.050;21.516;2023-05-21T10:33:10;8.45;;;4.40;;
80195;SDS011;69516;42.050;21.516;2023-05-21T10:35:37;9.00;;;5.05;;
80195;SDS011;69516;42.050;21.516;2023-05-21T10:38:05;7.85;;;4.35;;
80195;SDS011;69516;42.050;21.516;2023-05-21T10:40:31;10.32;;;4.65;;
80195;SDS011;69516;42.050;21.516;2023-05-21T10:45:49;10.07;;;4.53;;
80195;SDS011;69516;42.050;21.516;2023-05-21T10:51:25;11.98;;;5.28;;
80195;SDS011;69516;42.050;21.516;2023-05-21T10:59:46;10.32;;;4.20;;
80195;SDS011;69516;42.050;21.516;2023-05-21T11:02:13;10.60;;;4.88;;
80195;SDS011;69516;42.050;21.516;2023-05-21T11:04:43;8.23;;;4.50;;
80195;SDS011;69516;42.050;21.516;2023-05-21T11:07:10;10.35;;;4.70;;
80195;SDS011;69516;42.050;21.516;2023-05-21T11:09:37;9.50;;;5.03;;
80195;SDS011;69516;42.050;21.516;2023-05-21T11:12:03;9.70;;;4.60;;
80195;SDS011;69516;42.050;21.516;2023-05-21T11:14:32;9.25;;;4.63;;
80195;SDS011;69516;42.050;21.516;2023-05-21T11:17:02;10.00;;;4.80;;
80195;SDS011;69516;42.050;21.516;2023-05-21T11:19:36;9.38;;;4.43;;
80195;SDS011;69516;42.050;21.516;2023-05-21T11:22:09;11.77;;;5.15;;
80195;SDS011;69516;42.050;21.516;2023-05-21T11:24:45;8.68;;;4.72;;
80195;SDS011;69516;42.050;21.516;2023-05-21T11:27:11;11.93;;;4.95;;
80195;SDS011;69516;42.050;21.516;2023-05-21T11:29:38;7.57;;;4.55;;
80195;SDS011;69516;42.050;21.516;2023-05-21T11:32:05;8.00;;;4.45;;
80195;SDS011;69516;42.050;21.516;2023-05-21T11:39:42;9.48;;;4.70;;
80195;SDS011;69516;42.050;21.516;2023-05-21T11:42:08;10.52;;;4.50;;
80195;SDS011;69516;42.050;21.516;2023-05-21T11:44:44;8.57;;;4.70;;
80195;SDS011;69516;42.050;21.516;2023-05-21T11:47:12;11.32;;;4.80;;
80195;SDS011;69516;42.050;21.516;2023-05-21T11:49:42;9.88;;;4.72;;
80195;SDS011;69516;42.050;21.516;2023-05-21T11:52:08;8.93;;;4.80;;
80195;SDS011;69516;42.050;21.516;2023-05-21T11:54:42;9.73;;;4.43;;
80195;SDS011;69516;42.050;21.516;2023-05-21T11:57:11;9.05;;;4.47;;
80195;SDS011;69516;42.050;21.516;2023-05-21T11:59:41;9.63;;;4.15;;
80195;SDS011;69516;42.050;21.516;2023-05-21T12:02:08;12.93;;;4.30;;
80195;SDS011;69516;42.050;21.516;2023-05-21T12:04:34;7.75;;;3.95;;
80195;SDS011;69516;42.050;21.516;2023-05-21T12:07:07;7.57;;;3.80;;
80195;SDS011;69516;42.050;21.516;2023-05-21T12:09:43;10.13;;;3.78;;
80195;SDS011;69516;42.050;21.516;2023-05-21T12:12:10;11.48;;;3.97;;
80195;SDS011;69516;42.050;21.516;2023-05-21T12:14:46;7.47;;;3.72;;
80195;SDS011;69516;42.050;21.516;2023-05-21T12:17:16;8.60;;;3.88;;
80195;SDS011;69516;42.050;21.516;2023-05-21T12:19:43;9.52;;;3.70;;
80195;SDS011;69516;42.050;21.516;2023-05-21T12:22:10;7.65;;;3.55;;
80195;SDS011;69516;42.050;21.516;2023-05-21T12:24:36;7.32;;;3.60;;
80195;SDS011;69516;42.050;21.516;2023-05-21T12:27:04;8.43;;;3.53;;
80195;SDS011;69516;42.050;21.516;2023-05-21T12:29:40;8.52;;;3.42;;
80195;SDS011;69516;42.050;21.516;2023-05-21T12:32:07;9.32;;;3.60;;
80195;SDS011;69516;42.050;21.516;2023-05-21T12:37:04;7.07;;;2.97;;
80195;SDS011;69516;42.050;21.516;2023-05-21T12:39:39;8.10;;;3.40;;
80195;SDS011;69516;42.050;21.516;2023-05-21T12:42:06;7.28;;;3.70;;
80195;SDS011;69516;42.050;21.516;2023-05-21T12:44:32;10.57;;;3.92;;
80195;SDS011;69516;42.050;21.516;2023-05-21T12:46:58;11.43;;;4.75;;
80195;SDS011;69516;42.050;21.516;2023-05-21T12:49:38;9.98;;;5.00;;
80195;SDS011;69516;42.050;21.516;2023-05-21T12:52:08;9.85;;;5.03;;
80195;SDS011;69516;42.050;21.516;2023-05-21T12:54:36;7.97;;;4.32;;
80195;SDS011;69516;42.050;21.516;2023-05-21T12:57:36;9.68;;;5.22;;
80195;SDS011;69516;42.050;21.516;2023-05-21T12:59:55;9.00;;;4.95;;
80195;SDS011;69516;42.050;21.516;2023-05-21T13:02:23;8.63;;;4.60;;
80195;SDS011;69516;42.050;21.516;2023-05-21T13:04:56;9.25;;;4.60;;
80195;SDS011;69516;42.050;21.516;2023-05-21T13:07:23;7.25;;;4.70;;
80195;SDS011;69516;42.050;21.516;2023-05-21T13:09:50;9.13;;;4.47;;
80195;SDS011;69516;42.050;21.516;2023-05-21T13:12:18;9.73;;;4.90;;
80195;SDS011;69516;42.050;21.516;2023-05-21T13:14:44;9.90;;;5.00;;
80195;SDS011;69516;42.050;21.516;2023-05-21T13:17:10;8.73;;;4.82;;
80195;SDS011;69516;42.050;21.516;2023-05-21T13:19:37;9.80;;;5.45;;
80195;SDS011;69516;42.050;21.516;2023-05-21T13:22:03;8.20;;;4.82;;
80195;SDS011;69516;42.050;21.516;2023-05-21T13:24:31;8.80;;;4.85;;
80195;SDS011;69516;42.050;21.516;2023-05-21T13:26:57;10.13;;;5.00;;
80195;SDS011;69516;42.050;21.516;2023-05-21T13:29:23;9.80;;;5.43;;
80195;SDS011;69516;42.050;21.516;2023-05-21T13:31:49;8.68;;;4.75;;
80195;SDS011;69516;42.050;21.516;2023-05-21T13:34:15;8.98;;;4.95;;
80195;SDS011;69516;42.050;21.516;2023-05-21T13:36:41;10.15;;;5.18;;
80195;SDS011;69516;42.050;21.516;2023-05-21T13:39:08;9.60;;;5.63;;
80195;SDS011;69516;42.050;21.516;2023-05-21T13:41:34;8.00;;;4.53;;
80195;SDS011;69516;42.050;21.516;2023-05-21T13:44:00;10.25;;;5.47;;
80195;SDS011;69516;42.050;21.516;2023-05-21T13:46:26;8.50;;;4.72;;
80195;SDS011;69516;42.050;21.516;2023-05-21T13:48:53;8.48;;;4.65;;
80195;SDS011;69516;42.050;21.516;2023-05-21T13:51:19;9.40;;;4.72;;
80195;SDS011;69516;42.050;21.516;2023-05-21T13:53:45;9.32;;;5.20;;
80195;SDS011;69516;42.050;21.516;2023-05-21T13:56:11;10.13;;;4.90;;
80195;SDS011;69516;42.050;21.516;2023-05-21T13:58:37;11.70;;;5.20;;
80195;SDS011;69516;42.050;21.516;2023-05-21T14:01:04;10.07;;;4.75;;
80195;SDS011;69516;42.050;21.516;2023-05-21T14:03:31;11.32;;;5.47;;
80195;SDS011;69516;42.050;21.516;2023-05-21T14:05:57;9.98;;;4.70;;
80195;SDS011;69516;42.050;21.516;2023-05-21T14:08:24;8.80;;;5.18;;
80195;SDS011;69516;42.050;21.516;2023-05-21T14:10:52;8.02;;;4.50;;
80195;SDS011;69516;42.050;21.516;2023-05-21T14:13:19;8.43;;;4.40;;
80195;SDS011;69516;42.050;21.516;2023-05-21T14:15:46;9.27;;;5.10;;
80195;SDS011;69516;42.050;21.516;2023-05-21T14:18:12;9.40;;;5.03;;
80195;SDS011;69516;42.050;21.516;2023-05-21T14:20:38;8.75;;;4.93;;
80195;SDS011;69516;42.050;21.516;2023-05-21T14:23:05;10.63;;;5.18;;
80195;SDS011;69516;42.050;21.516;2023-05-21T14:25:31;11.15;;;4.75;;
80195;SDS011;69516;42.050;21.516;2023-05-21T14:27:57;9.10;;;4.72;;
80195;SDS011;69516;42.050;21.516;2023-05-21T14:30:23;8.52;;;4.50;;
80195;SDS011;69516;42.050;21.516;2023-05-21T14:32:49;9.52;;;4.18;;
80195;SDS011;69516;42.050;21.516;2023-05-21T14:35:16;7.80;;;4.80;;
80195;SDS011;69516;42.050;21.516;2023-05-21T14:37:42;8.73;;;4.82;;
80195;SDS011;69516;42.050;21.516;2023-05-21T14:40:08;10.10;;;4.95;;
80195;SDS011;69516;42.050;21.516;2023-05-21T14:42:35;7.55;;;4.53;;